Time;durP1;ratioP1;P1;durP2;ratioP2;P2;SDS_P1;SDS_P2;PMS_P1;PMS_P2;Temp;Humidity;BMP_temperature;BMP_pressure;BME280_temperature;BME280_humidity;BME280_pressure;Samples;Min_cycle;Max_cycle;Signal;HPM_P1;HPM_P2
2022/04/06 00:00:47;;;;;;;19.20;6.70;;;10.40;99.90;;;;;;5054399;28;20077;-83
2022/04/06 00:03:14;;;;;;;15.90;6.80;;;10.50;99.90;;;;;;5052641;28;20037;-83
2022/04/06 00:05:39;;;;;;;25.07;8.73;;;10.40;99.90;;;;;;5054081;28;20407;-83
2022/04/06 00:08:05;;;;;;;20.57;6.93;;;10.40;99.90;;;;;;5052441;28;20044;-83
2022/04/06 00:10:32;;;;;;;22.30;7.10;;;10.40;99.90;;;;;;5054243;28;20107;-83
2022/04/06 00:12:59;;;;;;;22.50;7.40;;;10.40;99.90;;;;;;5053545;28;20519;-82
2022/04/06 00:15:24;;;;;;;18.63;7.40;;;10.40;99.90;;;;;;5053992;28;20389;-83
2022/04/06 00:17:51;;;;;;;19.63;6.93;;;10.40;99.90;;;;;;5053873;28;20033;-83
2022/04/06 00:20:16;;;;;;;22.20;7.17;;;10.40;99.90;;;;;;5053875;28;20036;-83
2022/04/06 00:22:42;;;;;;;18.80;6.83;;;10.50;99.90;;;;;;5052403;28;20116;-83
2022/04/06 00:25:09;;;;;;;21.33;7.23;;;10.40;99.90;;;;;;5053648;28;20419;-83
2022/04/06 00:27:35;;;;;;;17.70;7.33;;;10.50;99.90;;;;;;5053375;28;20037;-83
2022/04/06 00:30:02;;;;;;;17.50;6.47;;;10.40;99.90;;;;;;5053824;28;20033;-83
2022/04/06 00:32:28;;;;;;;15.47;6.77;;;10.40;99.90;;;;;;5053331;28;20033;-83
2022/04/06 00:37:39;;;;;;;22.43;6.73;;;10.40;99.90;;;;;;5053732;28;20052;-83
2022/04/06 00:40:08;;;;;;;19.47;6.83;;;10.40;99.90;;;;;;5053324;28;20052;-83
2022/04/06 00:42:33;;;;;;;17.73;7.20;;;10.40;99.90;;;;;;5053312;28;20043;-83
2022/04/06 00:45:00;;;;;;;20.30;7.43;;;10.50;99.90;;;;;;5035320;28;20032;-83
2022/04/06 00:47:26;;;;;;;17.50;7.30;;;10.40;99.90;;;;;;5051076;28;20094;-83
2022/04/06 00:49:51;;;;;;;18.37;6.87;;;10.50;99.90;;;;;;5053183;28;20037;-83
2022/04/06 00:52:18;;;;;;;18.17;7.33;;;10.50;99.90;;;;;;5052912;28;20035;-82
2022/04/06 00:54:44;;;;;;;20.03;7.10;;;10.40;99.90;;;;;;5051794;28;20052;-83
2022/04/06 00:57:11;;;;;;;21.97;7.63;;;10.40;99.90;;;;;;5051652;28;20480;-83
2022/04/06 00:59:37;;;;;;;19.27;6.80;;;10.40;99.90;;;;;;5053310;28;20032;-83
2022/04/06 01:02:03;;;;;;;17.90;7.80;;;10.40;99.90;;;;;;5052873;28;20036;-82
2022/04/06 01:04:29;;;;;;;21.93;7.10;;;10.40;99.90;;;;;;5052926;28;20029;-83
2022/04/06 01:06:55;;;;;;;20.30;8.03;;;10.40;99.90;;;;;;5051511;28;20029;-82
2022/04/06 01:09:21;;;;;;;18.10;6.90;;;10.30;99.90;;;;;;5052801;28;20025;-83
2022/04/06 01:11:49;;;;;;;16.87;6.23;;;10.30;99.90;;;;;;5052655;28;20033;-83
2022/04/06 01:14:15;;;;;;;19.23;6.70;;;10.40;99.90;;;;;;5051509;28;20037;-83
2022/04/06 01:16:55;;;;;;;15.67;6.07;;;10.30;99.90;;;;;;5052611;28;20029;-83
2022/04/06 01:19:20;;;;;;;15.17;6.43;;;10.30;99.90;;;;;;5051382;28;20021;-82
2022/04/06 01:21:46;;;;;;;13.73;6.47;;;10.30;99.90;;;;;;5052907;28;20366;-83
2022/04/06 01:24:12;;;;;;;17.80;6.07;;;10.40;99.90;;;;;;5052605;28;20025;-83
2022/04/06 01:26:38;;;;;;;12.77;5.63;;;10.30;99.90;;;;;;5052355;28;20033;-82
2022/04/06 01:29:03;;;;;;;21.87;6.87;;;10.30;99.90;;;;;;5052560;28;20103;-82
2022/04/06 01:31:29;;;;;;;21.70;7.00;;;10.30;99.90;;;;;;5052335;28;20035;-82
2022/04/06 01:33:55;;;;;;;17.97;6.27;;;10.30;99.90;;;;;;5052356;28;20033;-82
2022/04/06 01:36:21;;;;;;;17.87;5.80;;;10.40;99.90;;;;;;5052179;28;20033;-82
2022/04/06 01:38:47;;;;;;;16.50;6.30;;;10.30;99.90;;;;;;5052202;28;20471;-82
2022/04/06 01:41:12;;;;;;;15.90;5.90;;;10.30;99.90;;;;;;5052412;28;20055;-83
2022/04/06 01:43:38;;;;;;;14.53;5.90;;;10.30;99.90;;;;;;5052246;28;20052;-83
2022/04/06 01:46:04;;;;;;;19.30;6.40;;;10.30;99.90;;;;;;5052253;28;20032;-82
2022/04/06 01:48:30;;;;;;;20.27;6.00;;;10.30;99.90;;;;;;5051792;28;20035;-83
2022/04/06 01:53:40;;;;;;;15.77;5.67;;;10.30;99.90;;;;;;5051830;28;20477;-83
2022/04/06 01:56:06;;;;;;;15.27;5.63;;;10.30;99.90;;;;;;5052172;28;20115;-82
2022/04/06 01:58:31;;;;;;;16.07;5.40;;;10.30;99.90;;;;;;5051736;28;20028;-82
2022/04/06 02:00:57;;;;;;;15.50;5.30;;;10.30;99.90;;;;;;5052006;28;20416;-82
2022/04/06 02:03:23;;;;;;;14.70;5.63;;;10.30;99.90;;;;;;5050345;28;20071;-83
2022/04/06 02:05:49;;;;;;;17.43;5.97;;;10.30;99.90;;;;;;5051886;28;20037;-83
2022/04/06 02:08:15;;;;;;;13.30;5.13;;;10.20;99.90;;;;;;5051552;28;20481;-83
2022/04/06 02:10:41;;;;;;;14.13;5.10;;;10.30;99.90;;;;;;5051871;28;20459;-83
2022/04/06 02:16:03;;;;;;;13.23;4.73;;;10.30;99.90;;;;;;5010388;28;20084;-78
2022/04/06 02:18:29;;;;;;;17.93;5.20;;;10.20;99.90;;;;;;4977740;28;20033;-79
2022/04/06 02:20:55;;;;;;;17.23;5.30;;;10.20;99.90;;;;;;4994347;28;20034;-79
2022/04/06 02:23:21;;;;;;;16.00;5.40;;;10.20;99.90;;;;;;5011797;28;20495;-79
2022/04/06 02:25:46;;;;;;;12.40;4.50;;;10.10;99.90;;;;;;4994572;28;20084;-81
2022/04/06 02:28:12;;;;;;;12.60;4.60;;;10.10;99.90;;;;;;4994097;28;20034;-79
2022/04/06 02:30:38;;;;;;;18.70;4.97;;;10.20;99.90;;;;;;5011940;28;20108;-81
2022/04/06 02:33:03;;;;;;;11.40;3.93;;;10.20;99.90;;;;;;5011767;28;20038;-81
2022/04/06 02:35:29;;;;;;;14.77;5.20;;;10.20;99.90;;;;;;5011817;28;20030;-81
2022/04/06 02:37:55;;;;;;;13.20;4.37;;;10.10;99.90;;;;;;4994063;28;20030;-81
2022/04/06 02:40:21;;;;;;;15.73;4.03;;;10.10;99.90;;;;;;5012000;28;20025;-81
2022/04/06 02:42:47;;;;;;;13.43;4.17;;;10.20;99.90;;;;;;5011612;28;20037;-81
2022/04/06 02:45:13;;;;;;;17.90;4.80;;;10.20;99.90;;;;;;5011669;28;20029;-81
2022/04/06 02:47:39;;;;;;;15.27;4.23;;;10.20;99.90;;;;;;5011368;28;20437;-81
2022/04/06 02:50:06;;;;;;;16.30;4.30;;;10.20;99.90;;;;;;5011781;28;20026;-81
2022/04/06 02:52:32;;;;;;;13.03;4.00;;;10.20;99.90;;;;;;5010203;28;20034;-81
2022/04/06 02:54:57;;;;;;;13.97;3.80;;;10.10;99.90;;;;;;5011598;28;20036;-81
2022/04/06 02:57:23;;;;;;;14.00;4.27;;;10.20;99.90;;;;;;5011321;28;20113;-81
2022/04/06 02:59:49;;;;;;;13.73;4.73;;;10.20;99.90;;;;;;5011550;28;20531;-81
2022/04/06 03:02:14;;;;;;;13.10;4.13;;;10.20;99.90;;;;;;5011403;28;20602;-81
2022/04/06 03:04:40;;;;;;;11.63;3.57;;;10.20;99.90;;;;;;5011354;28;20033;-81
2022/04/06 03:07:06;;;;;;;13.03;3.50;;;10.20;99.90;;;;;;5011317;28;20041;-81
2022/04/06 03:09:31;;;;;;;10.37;3.33;;;10.20;99.90;;;;;;5011022;28;20040;-81
2022/04/06 03:11:59;;;;;;;12.47;4.00;;;10.10;99.90;;;;;;5011105;28;20398;-81
2022/04/06 03:14:25;;;;;;;10.57;3.70;;;10.20;99.90;;;;;;5011223;28;20038;-81
2022/04/06 03:16:50;;;;;;;12.83;3.83;;;10.10;99.90;;;;;;5011170;28;20036;-81
2022/04/06 03:19:16;;;;;;;15.23;4.17;;;10.10;99.90;;;;;;5011250;28;20029;-80
2022/04/06 03:21:42;;;;;;;10.43;3.70;;;10.20;99.90;;;;;;5011434;28;20030;-81
2022/04/06 03:24:08;;;;;;;11.07;4.17;;;10.20;99.90;;;;;;4993582;28;20034;-81
2022/04/06 03:26:34;;;;;;;15.77;4.10;;;10.20;99.90;;;;;;5011027;28;20026;-81
2022/04/06 03:28:59;;;;;;;13.70;4.30;;;10.20;99.90;;;;;;5011462;28;20544;-81
2022/04/06 03:31:25;;;;;;;11.60;4.00;;;10.10;99.90;;;;;;5011035;28;20041;-81
2022/04/06 03:33:51;;;;;;;15.00;4.30;;;10.20;99.90;;;;;;5011318;28;20026;-81
2022/04/06 03:36:16;;;;;;;13.33;4.43;;;10.20;99.90;;;;;;4993572;28;20537;-81
2022/04/06 03:38:42;;;;;;;12.80;4.63;;;10.20;99.90;;;;;;4993564;28;20058;-81
2022/04/06 03:41:10;;;;;;;15.63;4.43;;;10.20;99.90;;;;;;4993700;28;20026;-81
2022/04/06 03:43:36;;;;;;;14.20;4.63;;;10.10;99.90;;;;;;5010958;28;20129;-81
2022/04/06 03:46:02;;;;;;;13.60;5.03;;;10.10;99.90;;;;;;5009753;28;20124;-81
2022/04/06 03:48:28;;;;;;;14.57;4.33;;;10.10;99.90;;;;;;5010776;28;20034;-81
2022/04/06 03:50:55;;;;;;;10.17;4.30;;;10.10;99.90;;;;;;5011181;28;20434;-80
2022/04/06 03:53:21;;;;;;;13.87;4.30;;;10.20;99.90;;;;;;4993157;28;20037;-81
2022/04/06 03:55:47;;;;;;;11.33;4.50;;;10.10;99.90;;;;;;4993353;28;20030;-81
2022/04/06 03:58:13;;;;;;;12.90;4.60;;;10.10;99.90;;;;;;5010706;28;20037;-81
2022/04/06 04:00:39;;;;;;;13.90;4.50;;;10.10;99.90;;;;;;5010925;28;20026;-81
2022/04/06 04:03:06;;;;;;;13.43;4.33;;;10.10;99.90;;;;;;4993216;28;20081;-81
2022/04/06 04:05:32;;;;;;;12.10;4.30;;;10.10;99.90;;;;;;5009770;28;20045;-81
2022/04/06 04:07:58;;;;;;;10.33;4.17;;;10.10;99.90;;;;;;4993394;28;20094;-81
2022/04/06 04:10:24;;;;;;;11.53;4.17;;;10.10;99.90;;;;;;5010876;28;20070;-81
2022/04/06 04:12:50;;;;;;;11.23;4.20;;;10.10;99.90;;;;;;5010761;28;20037;-81
2022/04/06 04:15:15;;;;;;;13.33;5.13;;;10.00;99.90;;;;;;5010648;28;20490;-81
2022/04/06 04:17:41;;;;;;;11.60;4.30;;;10.00;99.90;;;;;;5010624;28;20026;-81
2022/04/06 04:20:08;;;;;;;15.07;4.30;;;10.00;99.90;;;;;;5010829;28;20033;-81
2022/04/06 04:22:34;;;;;;;15.10;4.47;;;10.10;99.90;;;;;;4995546;28;20044;-81
2022/04/06 04:24:59;;;;;;;13.50;4.80;;;10.00;99.90;;;;;;5014133;28;20037;-80
2022/04/06 04:27:25;;;;;;;14.43;4.43;;;10.00;99.90;;;;;;5013914;28;20030;-81
2022/04/06 04:29:51;;;;;;;15.83;5.27;;;10.10;99.90;;;;;;5014397;28;20034;-81
2022/04/06 04:32:17;;;;;;;13.23;4.43;;;10.00;99.90;;;;;;5013914;28;20053;-81
2022/04/06 04:34:43;;;;;;;11.03;4.33;;;10.00;99.90;;;;;;5013965;28;20026;-81
2022/04/06 04:37:09;;;;;;;11.77;4.23;;;10.00;99.90;;;;;;4996327;28;20034;-81
2022/04/06 04:39:35;;;;;;;15.53;4.23;;;10.00;99.90;;;;;;4996364;28;20096;-81
2022/04/06 04:42:00;;;;;;;13.43;4.43;;;10.00;99.90;;;;;;5013897;28;20022;-79
2022/04/06 04:44:26;;;;;;;15.80;4.77;;;10.00;99.90;;;;;;5013968;28;20406;-80
2022/04/06 04:46:52;;;;;;;13.40;4.57;;;10.00;99.90;;;;;;5013518;28;20034;-80
2022/04/06 04:49:18;;;;;;;14.17;3.87;;;10.00;99.90;;;;;;5013812;28;20045;-80
2022/04/06 04:51:43;;;;;;;10.20;3.83;;;10.00;99.90;;;;;;5013570;28;20030;-80
2022/04/06 04:54:10;;;;;;;10.77;3.37;;;10.00;99.90;;;;;;4996150;28;20033;-80
2022/04/06 04:56:36;;;;;;;10.47;3.63;;;9.90;99.90;;;;;;5013459;28;20033;-81
2022/04/06 04:59:01;;;;;;;11.27;3.57;;;10.00;99.90;;;;;;5013494;28;20466;-81
2022/04/06 05:01:27;;;;;;;11.53;3.20;;;10.00;99.90;;;;;;5013324;28;20040;-80
2022/04/06 05:03:53;;;;;;;11.10;3.20;;;10.00;99.90;;;;;;5013407;28;20120;-80
2022/04/06 05:06:19;;;;;;;11.47;3.77;;;10.00;99.90;;;;;;5013479;28;20038;-80
2022/04/06 05:08:45;;;;;;;14.27;3.70;;;10.00;99.90;;;;;;5013610;28;20140;-80
2022/04/06 05:11:11;;;;;;;13.47;3.50;;;10.10;99.90;;;;;;4996042;28;20034;-80
2022/04/06 05:13:36;;;;;;;11.63;2.80;;;10.10;99.90;;;;;;5013030;28;20026;-80
2022/04/06 05:16:02;;;;;;;7.40;2.73;;;10.10;99.90;;;;;;4995816;28;20497;-81
2022/04/06 05:18:29;;;;;;;8.90;3.07;;;10.00;99.90;;;;;;5011835;28;20056;-81
2022/04/06 05:20:56;;;;;;;12.33;2.80;;;10.10;99.90;;;;;;5013300;28;20026;-81
2022/04/06 05:23:22;;;;;;;13.50;3.13;;;10.10;99.90;;;;;;5012953;28;20034;-81
2022/04/06 05:25:47;;;;;;;10.33;3.03;;;10.10;99.90;;;;;;5013192;28;20030;-81
2022/04/06 05:28:15;;;;;;;10.50;3.37;;;10.10;99.90;;;;;;4995343;28;20125;-80
2022/04/06 05:30:41;;;;;;;13.93;2.80;;;10.10;99.90;;;;;;5012887;28;20041;-81
2022/04/06 05:33:07;;;;;;;12.30;3.43;;;10.10;99.90;;;;;;4994992;28;20080;-80
2022/04/06 05:35:33;;;;;;;14.60;3.60;;;10.10;99.90;;;;;;5013013;28;20494;-80
2022/04/06 05:37:59;;;;;;;16.30;3.77;;;10.10;99.90;;;;;;4995010;28;20053;-80
2022/04/06 05:40:25;;;;;;;7.43;3.17;;;10.10;99.90;;;;;;4995469;28;20542;-81
2022/04/06 05:42:51;;;;;;;12.60;3.47;;;10.10;99.90;;;;;;5012508;28;20117;-80
2022/04/06 05:45:17;;;;;;;12.27;3.20;;;10.20;99.90;;;;;;5012610;28;20117;-80
2022/04/06 05:47:43;;;;;;;9.80;3.43;;;10.20;99.90;;;;;;5012533;28;20440;-81
2022/04/06 05:50:09;;;;;;;15.93;5.07;;;10.10;99.90;;;;;;5012742;28;20103;-81
2022/04/06 05:52:35;;;;;;;14.33;4.17;;;10.10;99.90;;;;;;5012334;28;20038;-81
2022/04/06 05:55:03;;;;;;;11.63;3.70;;;10.20;99.90;;;;;;5012619;28;20375;-81
2022/04/06 05:57:28;;;;;;;13.13;4.00;;;10.10;99.90;;;;;;4995033;28;20029;-81
2022/04/06 05:59:54;;;;;;;10.37;5.20;;;10.20;99.90;;;;;;5012355;28;20382;-80
2022/04/06 06:02:23;;;;;;;10.43;4.47;;;10.10;99.90;;;;;;4994803;28;20036;-80
2022/04/06 06:04:49;;;;;;;15.10;4.47;;;10.10;99.90;;;;;;5012239;28;20046;-80
2022/04/06 06:07:15;;;;;;;13.87;4.30;;;10.10;99.90;;;;;;5012171;28;20034;-79
2022/04/06 06:09:40;;;;;;;13.63;3.70;;;10.20;99.90;;;;;;5012320;28;20033;-79
2022/04/06 06:12:06;;;;;;;10.07;4.27;;;10.20;99.90;;;;;;4994392;28;20075;-80
2022/04/06 06:14:32;;;;;;;11.13;4.37;;;10.20;99.90;;;;;;5012007;28;20049;-80
2022/04/06 06:16:58;;;;;;;15.93;4.00;;;10.20;99.90;;;;;;5012000;28;20516;-80
2022/04/06 06:19:25;;;;;;;11.13;4.00;;;10.20;99.90;;;;;;5012220;28;20355;-81
2022/04/06 06:21:51;;;;;;;25.90;6.83;;;10.30;99.90;;;;;;5011818;28;20026;-80
2022/04/06 06:24:16;;;;;;;9.97;3.30;;;10.30;99.90;;;;;;5012078;28;20037;-80
2022/04/06 06:26:42;;;;;;;12.27;5.33;;;10.30;99.90;;;;;;5011820;28;20251;-80
2022/04/06 06:29:08;;;;;;;14.70;4.17;;;10.30;99.90;;;;;;5012016;28;20032;-80
2022/04/06 06:31:34;;;;;;;14.47;3.83;;;10.30;99.90;;;;;;4994234;28;20472;-81
2022/04/06 06:34:01;;;;;;;9.77;3.33;;;10.30;99.90;;;;;;5011694;28;20041;-80
2022/04/06 06:36:27;;;;;;;10.83;3.80;;;10.30;99.90;;;;;;5011626;28;20478;-81
2022/04/06 06:38:53;;;;;;;17.47;3.73;;;10.30;99.90;;;;;;5011841;28;20072;-81
2022/04/06 06:41:20;;;;;;;10.83;3.93;;;10.20;99.90;;;;;;4994096;28;20029;-81
2022/04/06 06:43:48;;;;;;;12.43;4.03;;;10.30;99.90;;;;;;4993435;28;20103;-81
2022/04/06 06:46:19;;;;;;;15.57;3.50;;;10.30;99.90;;;;;;5010507;28;20045;-80
2022/04/06 06:48:46;;;;;;;10.53;3.53;;;10.30;99.90;;;;;;5011388;28;20489;-81
2022/04/06 06:51:13;;;;;;;11.60;3.40;;;10.20;99.90;;;;;;5010422;28;20041;-81
2022/04/06 06:53:39;;;;;;;13.67;3.70;;;10.30;99.90;;;;;;5011458;28;20108;-80
2022/04/06 06:56:06;;;;;;;13.67;5.17;;;10.30;99.90;;;;;;5011531;28;20037;-81
2022/04/06 06:58:32;;;;;;;19.60;6.47;;;10.30;99.90;;;;;;5011245;28;20034;-81
2022/04/06 07:00:58;;;;;;;12.13;4.97;;;10.30;99.90;;;;;;5011498;28;20030;-81
2022/04/06 07:03:25;;;;;;;15.13;5.07;;;10.30;99.90;;;;;;5011232;28;20049;-81
2022/04/06 07:05:51;;;;;;;15.53;4.67;;;10.30;99.90;;;;;;5011444;28;20077;-81
2022/04/06 07:08:17;;;;;;;14.70;4.27;;;10.20;99.90;;;;;;5011195;28;20056;-81
2022/04/06 07:10:46;;;;;;;12.63;5.30;;;10.20;99.90;;;;;;5011456;28;20501;-80
2022/04/06 07:13:14;;;;;;;12.40;4.60;;;10.20;99.90;;;;;;5011097;28;20034;-81
2022/04/06 07:15:40;;;;;;;14.43;4.67;;;10.20;99.90;;;;;;4993573;28;20402;-81
2022/04/06 07:18:07;;;;;;;14.27;4.90;;;10.20;99.90;;;;;;5011356;28;20065;-81
2022/04/06 07:20:35;;;;;;;15.93;4.37;;;10.20;99.90;;;;;;5011460;28;20450;-81
2022/04/06 07:23:02;;;;;;;17.03;4.60;;;10.20;99.90;;;;;;5009931;28;20444;-80
2022/04/06 07:25:28;;;;;;;11.77;4.93;;;10.10;99.90;;;;;;5011202;28;20065;-81
2022/04/06 07:27:54;;;;;;;13.90;5.40;;;10.10;99.90;;;;;;5010976;28;20068;-81
2022/04/06 07:30:19;;;;;;;13.27;4.03;;;10.10;99.90;;;;;;5011164;28;20114;-81
2022/04/06 07:32:45;;;;;;;16.87;5.37;;;10.10;99.90;;;;;;5011030;28;20076;-81
2022/04/06 07:35:11;;;;;;;13.17;4.47;;;10.20;99.90;;;;;;5011181;28;20026;-81
2022/04/06 07:37:45;;;;;;;9.33;3.80;;;10.20;99.90;;;;;;5011020;28;20045;-81
2022/04/06 07:40:13;;;;;;;11.73;3.43;;;10.20;99.90;;;;;;5011317;28;20026;-81
2022/04/06 07:42:39;;;;;;;10.83;3.87;;;10.10;99.90;;;;;;5010950;28;20175;-81
2022/04/06 07:45:10;;;;;;;11.70;3.53;;;10.20;99.90;;;;;;5010896;28;20156;-81
2022/04/06 07:47:37;;;;;;;16.43;4.87;;;10.20;99.90;;;;;;5010842;28;20034;-81
2022/04/06 07:50:05;;;;;;;12.00;3.73;;;10.20;99.90;;;;;;5009997;28;20026;-81
2022/04/06 07:52:31;;;;;;;8.57;3.47;;;10.20;99.90;;;;;;4993271;28;20173;-81
2022/04/06 07:54:57;;;;;;;16.20;4.10;;;10.20;99.90;;;;;;5011028;28;20096;-81
2022/04/06 07:57:26;;;;;;;10.03;3.17;;;10.20;99.90;;;;;;5014615;28;20500;-81
2022/04/06 07:59:54;;;;;;;11.32;3.05;;;10.30;99.90;;;;;;5014804;28;20025;-81
2022/04/06 08:02:20;;;;;;;11.53;3.20;;;10.30;99.90;;;;;;5014690;28;20038;-81
2022/04/06 08:04:46;;;;;;;9.73;3.67;;;10.20;99.90;;;;;;5014716;28;20041;-81
2022/04/06 08:07:12;;;;;;;6.67;2.73;;;10.30;99.90;;;;;;5014615;28;20033;-81
2022/04/06 08:09:38;;;;;;;12.43;4.20;;;10.30;99.90;;;;;;5014570;28;20038;-81
2022/04/06 08:12:05;;;;;;;8.07;2.90;;;10.30;99.90;;;;;;5014247;28;20034;-81
2022/04/06 08:14:31;;;;;;;8.97;3.00;;;10.30;99.90;;;;;;5050814;22;20057;-72
2022/04/06 08:16:57;;;;;;;12.63;3.63;;;10.30;99.90;;;;;;5074568;28;20032;-72
2022/04/06 08:19:23;;;;;;;11.30;3.70;;;10.20;99.90;;;;;;5074918;28;20025;-72
2022/04/06 08:21:50;;;;;;;10.83;4.00;;;10.20;99.90;;;;;;5074564;28;20031;-72
2022/04/06 08:24:16;;;;;;;11.43;4.07;;;10.20;99.90;;;;;;5074490;28;20029;-72
2022/04/06 08:26:42;;;;;;;15.03;4.13;;;10.20;99.90;;;;;;5074106;28;20024;-72
2022/04/06 08:29:09;;;;;;;11.40;4.00;;;10.30;99.90;;;;;;5074903;28;20032;-71
2022/04/06 08:31:35;;;;;;;14.00;4.00;;;10.30;99.90;;;;;;5074368;28;20070;-72
2022/04/06 08:34:03;;;;;;;10.57;3.43;;;10.30;99.90;;;;;;5074273;28;20496;-71
2022/04/06 08:36:29;;;;;;;9.57;3.80;;;10.30;99.90;;;;;;5074330;28;20471;-72
2022/04/06 08:38:55;;;;;;;11.70;3.77;;;10.30;99.90;;;;;;5073908;28;20120;-72
2022/04/06 08:41:26;;;;;;;7.87;3.50;;;10.40;99.90;;;;;;5073953;28;20032;-72
2022/04/06 08:43:53;;;;;;;9.97;3.30;;;10.40;99.90;;;;;;5056043;28;20032;-72
2022/04/06 08:46:20;;;;;;;14.20;3.67;;;10.50;99.90;;;;;;5074447;28;20500;-73
2022/04/06 08:48:54;;;;;;;12.17;4.20;;;10.60;99.90;;;;;;5055976;28;20033;-72
2022/04/06 08:51:20;;;;;;;11.70;3.60;;;10.60;99.90;;;;;;5056120;28;20032;-71
2022/04/06 08:53:47;;;;;;;14.80;4.23;;;10.70;99.90;;;;;;5073774;28;20033;-72
2022/04/06 08:56:14;;;;;;;7.20;3.00;;;10.70;99.90;;;;;;5056096;28;20036;-71
2022/04/06 08:58:41;;;;;;;13.00;3.33;;;10.70;99.90;;;;;;5073614;28;20032;-71
2022/04/06 09:01:07;;;;;;;10.10;3.77;;;10.70;99.90;;;;;;5073462;28;20020;-71
2022/04/06 09:03:36;;;;;;;12.37;3.63;;;10.70;99.90;;;;;;5073346;28;20032;-71
2022/04/06 09:06:11;;;;;;;7.65;2.97;;;10.80;99.90;;;;;;5072970;28;20094;-71
2022/04/06 09:08:45;;;;;;;8.53;2.90;;;10.90;99.90;;;;;;5072259;28;20040;-71
2022/04/06 09:11:14;;;;;;;9.07;2.77;;;10.90;99.90;;;;;;5073132;28;20036;-72
2022/04/06 09:13:42;;;;;;;8.43;2.97;;;10.90;99.90;;;;;;5073061;28;20036;-73
2022/04/06 09:16:10;;;;;;;9.77;2.63;;;10.90;99.90;;;;;;5072893;28;20044;-73
2022/04/06 09:18:38;;;;;;;11.17;3.00;;;10.90;99.90;;;;;;5072780;28;20028;-73
2022/04/06 09:21:04;;;;;;;7.50;2.70;;;10.90;99.90;;;;;;5072942;28;20445;-73
2022/04/06 09:23:32;;;;;;;5.87;2.30;;;10.90;99.90;;;;;;5072855;28;20028;-72
2022/04/06 09:26:03;;;;;;;7.60;2.17;;;10.90;99.90;;;;;;5072630;28;20032;-72
2022/04/06 09:28:30;;;;;;;5.50;2.00;;;10.90;99.90;;;;;;5072538;28;20051;-72
2022/04/06 09:30:57;;;;;;;6.43;1.90;;;10.90;99.90;;;;;;5054807;28;20078;-72
2022/04/06 09:33:28;;;;;;;6.23;1.80;;;10.90;99.90;;;;;;5072536;28;20144;-73
2022/04/06 09:35:58;;;;;;;7.30;2.10;;;10.90;99.90;;;;;;5054595;28;20048;-72
2022/04/06 09:38:31;;;;;;;7.07;1.73;;;10.90;99.90;;;;;;5072444;28;20050;-72
2022/04/06 09:41:06;;;;;;;9.87;3.00;;;10.80;99.90;;;;;;5072483;28;20033;-72
2022/04/06 09:43:34;;;;;;;9.73;1.80;;;10.90;99.90;;;;;;5072459;28;20366;-72
2022/04/06 09:49:06;;;;;;;9.83;2.20;;;10.80;99.90;;;;;;5072247;28;20747;-72
2022/04/06 09:51:32;;;;;;;6.47;1.60;;;10.70;99.90;;;;;;5072261;28;20032;-72
2022/04/06 09:54:02;;;;;;;7.07;1.90;;;10.70;99.90;;;;;;5072103;28;20032;-72
2022/04/06 09:56:30;;;;;;;13.60;2.73;;;10.70;99.90;;;;;;5071947;28;20024;-72
2022/04/06 09:58:57;;;;;;;8.67;1.93;;;10.80;99.90;;;;;;5072391;28;20507;-72
2022/04/06 10:01:31;;;;;;;6.77;1.53;;;10.80;99.90;;;;;;5072218;28;20107;-72
2022/04/06 10:04:04;;;;;;;4.20;1.60;;;10.70;99.90;;;;;;5072044;28;20028;-72
2022/04/06 10:06:35;;;;;;;7.57;1.80;;;10.70;99.90;;;;;;5071730;28;20381;-72
2022/04/06 10:09:04;;;;;;;9.77;2.10;;;10.80;99.90;;;;;;5071939;28;20033;-72
2022/04/06 10:11:32;;;;;;;12.77;2.30;;;10.80;99.90;;;;;;5072072;28;20044;-72
2022/04/06 10:13:58;;;;;;;8.67;2.33;;;10.80;99.90;;;;;;5071644;28;20036;-72
2022/04/06 10:16:25;;;;;;;9.87;2.40;;;10.80;99.90;;;;;;5071733;28;20618;-72
2022/04/06 10:18:52;;;;;;;5.40;2.30;;;10.90;99.90;;;;;;5052779;28;20056;-72
2022/04/06 10:21:48;;;;;;;12.87;2.90;;;10.90;99.90;;;;;;5071778;28;20118;-72
2022/04/06 10:24:20;;;;;;;9.67;2.60;;;11.00;99.90;;;;;;5071666;28;20039;-72
2022/04/06 10:27:01;;;;;;;5.93;2.33;;;11.00;99.90;;;;;;5053704;28;20037;-72
2022/04/06 10:29:27;;;;;;;6.57;2.10;;;11.00;99.90;;;;;;5071500;28;20036;-72
2022/04/06 10:31:54;;;;;;;10.87;3.03;;;11.10;99.90;;;;;;5071660;28;20477;-72
2022/04/06 10:34:22;;;;;;;7.00;2.47;;;11.20;99.90;;;;;;5053793;28;20385;-72
2022/04/06 10:37:15;;;;;;;8.43;2.60;;;11.10;99.90;;;;;;5071302;28;20031;-72
2022/04/06 10:39:50;;;;;;;6.07;2.70;;;11.10;99.90;;;;;;5053568;28;20039;-72
2022/04/06 10:42:28;;;;;;;9.40;2.93;;;11.10;99.90;;;;;;5071135;28;20033;-72
2022/04/06 10:44:55;;;;;;;7.20;2.57;;;11.10;99.90;;;;;;5071424;28;20108;-72
2022/04/06 10:47:22;;;;;;;5.57;2.10;;;11.10;99.90;;;;;;5071129;28;20424;-72
2022/04/06 10:50:10;;;;;;;8.47;2.27;;;11.10;99.90;;;;;;5071158;28;20032;-72
2022/04/06 10:52:36;;;;;;;7.13;2.07;;;11.10;99.90;;;;;;5070944;28;20025;-73
2022/04/06 10:55:29;;;;;;;7.13;2.30;;;11.10;99.90;;;;;;5053262;28;20041;-72
2022/04/06 10:57:57;;;;;;;7.30;2.20;;;11.10;99.90;;;;;;5067664;28;20040;-72
2022/04/06 11:00:25;;;;;;;9.03;2.80;;;11.00;99.90;;;;;;5053373;28;20028;-72
2022/04/06 11:02:52;;;;;;;8.17;2.90;;;11.10;99.90;;;;;;5070974;28;20071;-71
2022/04/06 11:05:49;;;;;;;8.77;2.60;;;11.10;99.90;;;;;;5070923;28;20024;-71
2022/04/06 11:11:44;;;;;;;7.70;2.17;;;11.10;99.90;;;;;;5070987;28;20501;-71
2022/04/06 11:14:11;;;;;;;8.73;2.40;;;11.10;99.90;;;;;;5070869;28;20063;-71
2022/04/06 11:16:47;;;;;;;6.37;2.43;;;11.20;99.90;;;;;;5052751;28;20029;-71
2022/04/06 11:19:14;;;;;;;5.30;2.47;;;11.20;99.90;;;;;;5070751;28;20027;-71
2022/04/06 11:21:51;;;;;;;6.33;2.17;;;11.10;99.90;;;;;;5070770;28;20036;-71
2022/04/06 11:24:25;;;;;;;8.37;2.93;;;11.10;99.90;;;;;;5070839;28;20537;-71
2022/04/06 11:26:51;;;;;;;7.43;2.30;;;11.10;99.90;;;;;;5070739;28;20401;-71
2022/04/06 11:29:18;;;;;;;6.30;1.80;;;11.00;99.90;;;;;;5052755;28;20072;-71
2022/04/06 11:32:00;;;;;;;7.43;2.20;;;11.00;99.90;;;;;;5055892;28;20127;-71
2022/04/06 11:34:41;;;;;;;4.07;1.80;;;11.00;99.90;;;;;;5074867;28;20171;-71
2022/04/06 11:37:08;;;;;;;7.13;1.90;;;10.90;99.90;;;;;;5074672;28;20024;-71
2022/04/06 11:39:35;;;;;;;5.33;2.13;;;10.90;99.90;;;;;;5057043;28;20020;-71
2022/04/06 11:42:04;;;;;;;4.57;1.93;;;10.80;99.90;;;;;;5074607;28;20393;-71
2022/04/06 11:44:30;;;;;;;8.30;2.20;;;10.80;99.90;;;;;;5074597;28;20024;-71
2022/04/06 11:46:56;;;;;;;5.13;2.30;;;10.80;99.90;;;;;;5074406;28;20032;-72
2022/04/06 11:49:29;;;;;;;4.57;2.10;;;10.80;99.90;;;;;;5074454;28;20029;-72
2022/04/06 11:51:57;;;;;;;7.07;2.43;;;10.80;99.90;;;;;;5074464;28;20052;-71
2022/04/06 11:54:24;;;;;;;7.80;2.13;;;10.90;99.90;;;;;;5074587;28;20029;-71
2022/04/06 11:56:54;;;;;;;4.03;2.10;;;10.90;99.90;;;;;;5074163;28;20066;-71
2022/04/06 11:59:23;;;;;;;6.37;2.40;;;10.90;99.90;;;;;;5056523;28;20188;-71
2022/04/06 12:01:50;;;;;;;6.57;3.33;;;10.90;99.90;;;;;;5074290;28;20025;-71
2022/04/06 12:04:19;;;;;;;7.27;2.50;;;10.90;99.90;;;;;;5074544;28;20035;-71
2022/04/06 12:06:46;;;;;;;5.23;2.57;;;10.90;99.90;;;;;;5074075;28;20081;-71
2022/04/06 12:09:13;;;;;;;6.97;2.20;;;10.80;99.90;;;;;;5056357;28;20111;-71
2022/04/06 12:11:39;;;;;;;4.47;1.93;;;10.90;99.90;;;;;;5074183;28;20401;-71
2022/04/06 12:14:10;;;;;;;8.90;2.50;;;10.90;99.90;;;;;;5055838;28;20032;-71
2022/04/06 12:16:37;;;;;;;6.03;2.00;;;10.90;99.90;;;;;;5073805;28;20024;-72
2022/04/06 12:19:08;;;;;;;6.07;2.00;;;10.90;99.90;;;;;;5073929;28;20059;-71
2022/04/06 12:21:41;;;;;;;5.53;1.80;;;11.00;99.90;;;;;;5056007;28;20033;-71
2022/04/06 12:24:07;;;;;;;7.13;2.10;;;11.00;99.90;;;;;;5073937;28;20032;-71
2022/04/06 12:26:54;;;;;;;4.97;2.10;;;11.00;99.90;;;;;;5073756;28;20374;-71
2022/04/06 12:29:21;;;;;;;5.63;1.87;;;11.10;99.90;;;;;;5073757;28;20120;-71
2022/04/06 12:31:47;;;;;;;7.23;2.70;;;11.10;99.90;;;;;;5073711;28;20039;-71
2022/04/06 12:34:32;;;;;;;7.57;2.43;;;11.10;99.90;;;;;;5073602;28;20083;-71
2022/04/06 12:36:58;;;;;;;5.60;1.90;;;11.10;99.90;;;;;;5073691;28;20028;-71
2022/04/06 12:39:25;;;;;;;6.97;2.33;;;11.10;99.90;;;;;;5073407;28;20028;-71
2022/04/06 12:42:16;;;;;;;6.27;2.50;;;11.10;99.90;;;;;;5054567;28;20081;-71
2022/04/06 12:45:02;;;;;;;5.50;2.20;;;11.10;99.90;;;;;;5072939;28;20400;-72
2022/04/06 12:47:28;;;;;;;9.63;3.00;;;11.00;99.90;;;;;;5073369;28;20095;-71
2022/04/06 12:50:13;;;;;;;5.30;2.33;;;11.00;99.90;;;;;;5073445;28;20025;-71
2022/04/06 12:52:39;;;;;;;7.60;2.60;;;11.10;99.90;;;;;;5055304;28;20093;-71
2022/04/06 12:55:09;;;;;;;6.87;2.83;;;11.10;99.90;;;;;;5073225;28;20492;-72
2022/04/06 12:57:36;;;;;;;4.85;2.40;;;11.10;99.90;;;;;;5073123;28;20024;-71